Ann Elise — WDG5175 — position and weather

sailwx.info

Track history (hours):
 
Tides and Currents Weather Stations Pressure Air Temp Water Temp Dewpoint Dewpoint Depression Visibility Wind Speed Wind Dir Waves Ship Positions

Ann Elise

Owner: Magnolia Marine Transport Company, Vicksburg, MS. More information available from US FCC via Universal Licensing System and Coast Guard Vessel Documentation Center.

Last reported at 2017-Nov-16 14:24 UTC. Time now 2017-Nov-20 04:05 UTC.
Position N 32°40' W 091°08'.

Length 32 m; draft 3.1 m.

Type: Towing. MMSI: 367544060.

Date/timePositionNaut miles runAvg speedWind from/ knotsBaromVisibWave heightAir tempDewpointWater temp
2017-Nov-16 14:24N 32°40' W 091°08'2 4.7
2017-Nov-16 13:54N 32°38' W 091°09'2 4.2
2017-Nov-16 13:30N 32°37' W 091°09'2 4.5
2017-Nov-16 13:00N 32°35' W 091°07'2 4.4
2017-Nov-16 12:30N 32°33' W 091°06'3 4.4
2017-Nov-16 11:53N 32°30' W 091°07'2 4.5
2017-Nov-16 11:30N 32°29' W 091°07'2 4.9
2017-Nov-16 11:00N 32°27' W 091°05'2 4.6
2017-Nov-16 10:30N 32°26' W 091°02'2 4.8
2017-Nov-16 10:00N 32°25' W 090°60'2 4.5
2017-Nov-16 09:30N 32°23' W 091°00'2 4.2
2017-Nov-16 09:00N 32°21' W 090°59'2 3.4
2017-Nov-16 08:30N 32°21' W 090°57'0 0.0
2017-Nov-16 08:00N 32°21' W 090°57'0 0.0
2017-Nov-16 07:30N 32°21' W 090°57'0 0.0
2017-Nov-16 07:00N 32°21' W 090°57'0 0.0
2017-Nov-16 06:30N 32°21' W 090°57'0 0.0
2017-Nov-16 06:00N 32°21' W 090°57'0 0.4
2017-Nov-16 05:30N 32°21' W 090°56'2 4.4
2017-Nov-16 05:00N 32°20' W 090°54'2 4.3
2017-Nov-16 04:30N 32°18' W 090°55'2 4.4
2017-Nov-16 04:00N 32°17' W 090°57'3 5.0
2017-Nov-16 03:30N 32°15' W 090°59'2 4.4
2017-Nov-16 03:00N 32°12' W 090°59'2 4.5
2017-Nov-16 02:30N 32°10' W 090°60'2 4.3
2017-Nov-16 02:00N 32°08' W 091°00'2 4.0
2017-Nov-16 01:30N 32°07' W 091°02'3 4.7
2017-Nov-16 00:58N 32°08' W 091°05'2 3.5
2017-Nov-16 00:30N 32°07' W 091°06'4 3.8
2017-Nov-15 23:29N 32°04' W 091°03'3 5.1
2017-Nov-15 22:56N 32°01' W 091°05'  
2017-Nov-11 09:15N 32°06' W 091°06'2 7.3
2017-Nov-11 09:00N 32°08' W 091°06'4 6.5
2017-Nov-11 08:25N 32°07' W 091°02'3 7.9
2017-Nov-11 08:00N 32°10' W 091°00'4 8.6
2017-Nov-11 07:30N 32°14' W 090°59'4 8.2
2017-Nov-11 07:00N 32°17' W 090°56'3 6.3
2017-Nov-11 06:30N 32°20' W 090°54'3 5.7
2017-Nov-11 06:00N 32°21' W 090°57'3 5.6
2017-Nov-11 05:30N 32°23' W 090°60'4 7.2
2017-Nov-11 05:00N 32°26' W 091°02'4 8.5
2017-Nov-11 04:30N 32°28' W 091°06'4 8.2
2017-Nov-11 04:00N 32°32' W 091°06'4 8.4
2017-Nov-11 03:30N 32°36' W 091°08'  
Track history (hours):
 
Tides and Currents Weather Stations Pressure Air Temp Water Temp Dewpoint Dewpoint Depression Visibility Wind Speed Wind Dir Waves Ship Positions

Ann Elise

Owner: Magnolia Marine Transport Company, Vicksburg, MS. More information available from US FCC via Universal Licensing System and Coast Guard Vessel Documentation Center.

Last reported at 2017-Nov-16 14:24 UTC. Time now 2017-Nov-20 04:05 UTC.
Position N 32°40' W 091°08'.

Length 32 m; draft 3.1 m.

Type: Towing. MMSI: 367544060.

Date/timePositionNaut miles runAvg speedWind from/ knotsBaromVisibWave heightAir tempDewpointWater temp
2017-Nov-16 14:24N 32°40' W 091°08'2 4.7
2017-Nov-16 13:54N 32°38' W 091°09'2 4.2
2017-Nov-16 13:30N 32°37' W 091°09'2 4.5
2017-Nov-16 13:00N 32°35' W 091°07'2 4.4
2017-Nov-16 12:30N 32°33' W 091°06'3 4.4
2017-Nov-16 11:53N 32°30' W 091°07'2 4.5
2017-Nov-16 11:30N 32°29' W 091°07'2 4.9
2017-Nov-16 11:00N 32°27' W 091°05'2 4.6
2017-Nov-16 10:30N 32°26' W 091°02'2 4.8
2017-Nov-16 10:00N 32°25' W 090°60'2 4.5
2017-Nov-16 09:30N 32°23' W 091°00'2 4.2
2017-Nov-16 09:00N 32°21' W 090°59'2 3.4
2017-Nov-16 08:30N 32°21' W 090°57'0 0.0
2017-Nov-16 08:00N 32°21' W 090°57'0 0.0
2017-Nov-16 07:30N 32°21' W 090°57'0 0.0
2017-Nov-16 07:00N 32°21' W 090°57'0 0.0
2017-Nov-16 06:30N 32°21' W 090°57'0 0.0
2017-Nov-16 06:00N 32°21' W 090°57'0 0.4
2017-Nov-16 05:30N 32°21' W 090°56'2 4.4
2017-Nov-16 05:00N 32°20' W 090°54'2 4.3
2017-Nov-16 04:30N 32°18' W 090°55'2 4.4
2017-Nov-16 04:00N 32°17' W 090°57'3 5.0
2017-Nov-16 03:30N 32°15' W 090°59'2 4.4
2017-Nov-16 03:00N 32°12' W 090°59'2 4.5
2017-Nov-16 02:30N 32°10' W 090°60'2 4.3
2017-Nov-16 02:00N 32°08' W 091°00'2 4.0
2017-Nov-16 01:30N 32°07' W 091°02'3 4.7
2017-Nov-16 00:58N 32°08' W 091°05'2 3.5
2017-Nov-16 00:30N 32°07' W 091°06'4 3.8
2017-Nov-15 23:29N 32°04' W 091°03'3 5.1
2017-Nov-15 22:56N 32°01' W 091°05'  
2017-Nov-11 09:15N 32°06' W 091°06'2 7.3
2017-Nov-11 09:00N 32°08' W 091°06'4 6.5
2017-Nov-11 08:25N 32°07' W 091°02'3 7.9
2017-Nov-11 08:00N 32°10' W 091°00'4 8.6
2017-Nov-11 07:30N 32°14' W 090°59'4 8.2
2017-Nov-11 07:00N 32°17' W 090°56'3 6.3
2017-Nov-11 06:30N 32°20' W 090°54'3 5.7
2017-Nov-11 06:00N 32°21' W 090°57'3 5.6
2017-Nov-11 05:30N 32°23' W 090°60'4 7.2
2017-Nov-11 05:00N 32°26' W 091°02'4 8.5
2017-Nov-11 04:30N 32°28' W 091°06'4 8.2
2017-Nov-11 04:00N 32°32' W 091°06'4 8.4
2017-Nov-11 03:30N 32°36' W 091°08'  

Dump ship's entire track history